Station Historical Data
Daily Summary for December 7, 2017 Units:  Metric    English   Both
« Previous Day
Next Day »
Daily Weekly Monthly Yearly Custom
  High: Low: Average:
Temperature: 9.3 °C 4.2 °C 5.9 °C
Dew Point: 0.6 °C -3.7 °C -1.1 °C
Humidity: 72% 41% 61%
Wind Speed: 9.3km/h 0km/h 1.8km/h
Wind Gust: 7.4km/h - -
Wind- - SSE
Pressure: 1024.3 hPa 1020.5 hPa -
Precipitation: 0 mm    
Historical Graphs
 
 
Tabular Data for December 7, 2017
Time Temperature Dew Point Pressure Wind Wind Speed Wind Gust Humidity Rainfall Rate (Hourly) solar Conditions
00:03 4.2 °C -0.6 °C 1023.6 hPa Calm     71% 0 mm WeatherDisplay:10.37 W/m2 CLR
00:07 4.2 °C -0.4 °C 1023.9 hPa Calm     72% 0 mm WeatherDisplay:10.37 W/m2 CLR
00:12 4.2 °C -0.8 °C 1023.9 hPa Calm     70% 0 mm WeatherDisplay:10.37 W/m2 CLR
00:17 4.2 °C -1.2 °C 1023.9 hPa Calm     68% 0 mm WeatherDisplay:10.37 W/m2 CLR
00:23 4.3 °C -1.1 °C 1023.6 hPa Calm     68% 0 mm WeatherDisplay:10.37 W/m2 CLR
00:28 4.3 °C -1.1 °C 1023.6 hPa Calm     68% 0 mm WeatherDisplay:10.37 W/m2 CLR
00:33 4.4 °C -0.6 °C 1023.6 hPa Calm     70% 0 mm WeatherDisplay:10.37 W/m2 CLR
00:38 4.3 °C -1.1 °C 1023.2 hPa Calm     68% 0 mm WeatherDisplay:10.37 W/m2 CLR
00:43 4.3 °C -1.1 °C 1023.2 hPa Calm     68% 0 mm WeatherDisplay:10.37 W/m2 CLR
00:48 4.3 °C -1.7 °C 1022.9 hPa NNE 1.9 km/h   65% 0 mm WeatherDisplay:10.37 W/m2 CLR
00:53 4.4 °C -1.6 °C 1023.2 hPa North 1.9 km/h   65% 0 mm WeatherDisplay:10.37 W/m2 CLR
00:58 4.4 °C -1.4 °C 1023.2 hPa NNW 1.9 km/h   66% 0 mm WeatherDisplay:10.37 W/m2 CLR
01:03 4.4 °C -1.2 °C 1023.2 hPa Calm     67% 0 mm WeatherDisplay:10.37 W/m2 CLR
01:08 4.4 °C -1.2 °C 1023.2 hPa Calm     67% 0 mm WeatherDisplay:10.37 W/m2 CLR
01:13 4.3 °C -1.4 °C 1023.2 hPa Calm     66% 0 mm WeatherDisplay:10.37 W/m2 CLR
01:18 4.3 °C -1.3 °C 1023.2 hPa Calm     67% 0 mm WeatherDisplay:10.37 W/m2 CLR
01:23 4.3 °C -1.3 °C 1023.2 hPa Calm     67% 0 mm WeatherDisplay:10.37 W/m2 CLR
01:28 4.3 °C -1.5 °C 1023.2 hPa NW 1.9 km/h   66% 0 mm WeatherDisplay:10.37 W/m2 CLR
01:34 4.3 °C -1.1 °C 1023.6 hPa WSW 1.9 km/h   68% 0 mm WeatherDisplay:10.37 W/m2 CLR
01:39 4.3 °C -1.1 °C 1023.2 hPa Calm     68% 0 mm WeatherDisplay:10.37 W/m2 CLR
01:44 4.3 °C -1.3 °C 1022.9 hPa Calm     67% 0 mm WeatherDisplay:10.37 W/m2 CLR
01:49 4.3 °C -1.1 °C 1022.9 hPa Calm     68% 0 mm WeatherDisplay:10.37 W/m2 CLR
01:54 4.3 °C -0.9 °C 1023.2 hPa Calm     69% 0 mm WeatherDisplay:10.37 W/m2 CLR
01:59 4.2 °C -1.4 °C 1023.2 hPa Calm     67% 0 mm WeatherDisplay:10.37 W/m2 CLR
02:04 4.2 °C -0.8 °C 1023.2 hPa Calm     70% 0 mm WeatherDisplay:10.37 W/m2 CLR
02:09 4.3 °C -1.1 °C 1023.2 hPa Calm     68% 0 mm WeatherDisplay:10.37 W/m2 CLR
02:14 4.3 °C -1.3 °C 1023.2 hPa Calm     67% 0 mm WeatherDisplay:10.37 W/m2 CLR
02:19 4.3 °C -1.3 °C 1023.2 hPa Calm     67% 0 mm WeatherDisplay:10.37 W/m2 CLR
02:24 4.3 °C -1.5 °C 1023.2 hPa Calm     66% 0 mm WeatherDisplay:10.37 W/m2 CLR
02:29 4.3 °C -1.1 °C 1023.6 hPa Calm     68% 0 mm WeatherDisplay:10.37 W/m2 CLR
02:34 4.3 °C -1.3 °C 1023.2 hPa Calm     67% 0 mm WeatherDisplay:10.37 W/m2 CLR
02:40 4.3 °C -1.3 °C 1023.2 hPa Calm     67% 0 mm WeatherDisplay:10.37 W/m2 CLR
02:45 4.3 °C -1.1 °C 1023.2 hPa Calm     68% 0 mm WeatherDisplay:10.37 W/m2 CLR
02:50 4.3 °C -0.9 °C 1023.2 hPa Calm     69% 0 mm WeatherDisplay:10.37 W/m2 CLR
02:55 4.3 °C -1.1 °C 1023.6 hPa Calm     68% 0 mm WeatherDisplay:10.37 W/m2 CLR
03:00 4.3 °C -0.9 °C 1023.2 hPa Calm     69% 0 mm WeatherDisplay:10.37 W/m2 CLR
03:05 4.3 °C -0.9 °C 1023.2 hPa Calm     69% 0 mm WeatherDisplay:10.37 W/m2 CLR
03:10 4.3 °C -0.7 °C 1023.6 hPa Calm     70% 0 mm WeatherDisplay:10.37 W/m2 CLR
03:15 4.3 °C -1.1 °C 1023.2 hPa Calm     68% 0 mm WeatherDisplay:10.37 W/m2 CLR
03:20 4.2 °C -1.2 °C 1023.6 hPa Calm     68% 0 mm WeatherDisplay:10.37 W/m2 CLR
03:25 4.2 °C -0.8 °C 1023.2 hPa Calm     70% 0 mm WeatherDisplay:10.37 W/m2 CLR
03:30 4.2 °C -0.9 °C 1023.6 hPa Calm     69% 0 mm WeatherDisplay:10.37 W/m2 CLR
03:35 4.2 °C -0.9 °C 1023.6 hPa Calm     69% 0 mm WeatherDisplay:10.37 W/m2 CLR
03:40 4.2 °C -0.6 °C 1023.2 hPa Calm     71% 0 mm WeatherDisplay:10.37 W/m2 CLR
03:46 4.2 °C -0.6 °C 1023.2 hPa Calm     71% 0 mm WeatherDisplay:10.37 W/m2 CLR
03:51 4.2 °C -0.6 °C 1023.2 hPa Calm     71% 0 mm WeatherDisplay:10.37 W/m2 CLR
03:56 4.2 °C -0.6 °C 1023.2 hPa Calm     71% 0 mm WeatherDisplay:10.37 W/m2 CLR
04:01 4.2 °C -0.6 °C 1023.2 hPa Calm     71% 0 mm WeatherDisplay:10.37 W/m2 CLR
04:06 4.2 °C -0.8 °C 1023.2 hPa Calm     70% 0 mm WeatherDisplay:10.37 W/m2 CLR
04:11 4.2 °C -0.9 °C 1023.2 hPa Calm     69% 0 mm WeatherDisplay:10.37 W/m2 CLR
04:16 4.2 °C -0.8 °C 1022.9 hPa Calm     70% 0 mm WeatherDisplay:10.37 W/m2 CLR
04:21 4.2 °C -0.9 °C 1022.9 hPa Calm     69% 0 mm WeatherDisplay:10.37 W/m2 CLR
04:26 4.2 °C -0.9 °C 1022.9 hPa Calm     69% 0 mm WeatherDisplay:10.37 W/m2 CLR
04:31 4.3 °C -0.7 °C 1022.9 hPa Calm     70% 0 mm WeatherDisplay:10.37 W/m2 CLR
04:36 4.2 °C -0.6 °C 1022.9 hPa Calm     71% 0 mm WeatherDisplay:10.37 W/m2 CLR
04:42 4.2 °C -0.9 °C 1022.9 hPa Calm     69% 0 mm WeatherDisplay:10.37 W/m2 CLR
04:47 4.2 °C -0.8 °C 1023.2 hPa Calm     70% 0 mm WeatherDisplay:10.37 W/m2 CLR
04:52 4.2 °C -0.6 °C 1022.9 hPa Calm     71% 0 mm WeatherDisplay:10.37 W/m2 CLR
04:57 4.2 °C -0.6 °C 1022.6 hPa Calm     71% 0 mm WeatherDisplay:10.37 W/m2 CLR
05:02 4.2 °C -0.4 °C 1022.6 hPa Calm     72% 0 mm WeatherDisplay:10.37 W/m2 BKN
05:07 4.2 °C -0.9 °C 1022.6 hPa Calm     69% 0 mm WeatherDisplay:10.37 W/m2 BKN
05:12 4.2 °C -0.8 °C 1022.9 hPa Calm     70% 0 mm WeatherDisplay:10.37 W/m2 BKN
05:17 4.2 °C -0.8 °C 1022.6 hPa Calm     70% 0 mm WeatherDisplay:10.37 W/m2 BKN
05:22 4.2 °C -0.6 °C 1022.9 hPa Calm     71% 0 mm WeatherDisplay:10.37 W/m2 BKN
05:27 4.2 °C -0.4 °C 1022.9 hPa Calm   0.2 km/h 72% 0 mm WeatherDisplay:10.37 W/m2 BKN
05:32 4.2 °C -0.6 °C 1022.9 hPa WNW 1.9 km/h   71% 0 mm WeatherDisplay:10.37 W/m2 BKN
05:37 4.2 °C -0.6 °C 1022.2 hPa West 1.9 km/h   71% 0 mm WeatherDisplay:10.37 W/m2 BKN
05:42 4.2 °C -0.6 °C 1022.6 hPa West 1.9 km/h   71% 0 mm WeatherDisplay:10.37 W/m2 BKN
05:48 4.2 °C -0.8 °C 1022.9 hPa Calm     70% 0 mm WeatherDisplay:10.37 W/m2 BKN
05:53 4.2 °C -0.8 °C 1022.9 hPa Calm     70% 0 mm WeatherDisplay:10.37 W/m2 BKN
05:58 4.2 °C -0.8 °C 1022.9 hPa WNW 1.9 km/h   70% 0 mm WeatherDisplay:10.37 W/m2 BKN
06:03 4.3 °C -0.9 °C 1022.9 hPa NW 1.9 km/h   69% 0 mm WeatherDisplay:10.37 W/m2 BKN
06:08 4.2 °C -0.8 °C 1022.9 hPa Calm     70% 0 mm WeatherDisplay:10.37 W/m2 BKN
06:13 4.2 °C -0.8 °C 1022.9 hPa Calm     70% 0 mm WeatherDisplay:10.37 W/m2 BKN
06:18 4.2 °C -0.8 °C 1022.9 hPa Calm     70% 0 mm WeatherDisplay:10.37 W/m2 BKN
06:23 4.2 °C -0.8 °C 1022.9 hPa Calm     70% 0 mm WeatherDisplay:10.37 W/m2 BKN
06:28 4.2 °C -0.8 °C 1022.9 hPa Calm     70% 0 mm WeatherDisplay:10.37 W/m2 BKN
06:33 4.2 °C -0.8 °C 1022.9 hPa Calm     70% 0 mm WeatherDisplay:10.37 W/m2 BKN
06:38 4.2 °C -0.8 °C 1022.9 hPa NNW 1.9 km/h   70% 0 mm WeatherDisplay:10.37 W/m2 BKN
06:43 4.3 °C -0.5 °C 1022.9 hPa WNW 1.9 km/h   71% 0 mm WeatherDisplay:10.37 W/m2 BKN
06:48 4.3 °C -0.9 °C 1022.9 hPa WNW 1.9 km/h 1.9 km/h 69% 0 mm WeatherDisplay:10.37 W/m2 BKN
06:53 4.3 °C -0.7 °C 1022.9 hPa WNW 1.9 km/h   70% 0 mm WeatherDisplay:10.37 W/m2 BKN
06:59 4.3 °C -0.5 °C 1022.9 hPa WNW 1.9 km/h   71% 0 mm WeatherDisplay:10.37 W/m2 BKN
07:04 4.3 °C -1.1 °C 1022.9 hPa WNW 1.9 km/h   68% 0 mm WeatherDisplay:10.37 W/m2 SCT
07:09 4.3 °C -0.8 °C 1022.9 hPa WNW 1.9 km/h   69% 0 mm WeatherDisplay:10.37 W/m2 SCT
07:14 4.3 °C -0.8 °C 1022.9 hPa WNW 1.9 km/h   69% 0 mm WeatherDisplay:10.37 W/m2 SCT
07:19 4.3 °C -1.1 °C 1023.2 hPa WNW 1.9 km/h   68% 0 mm WeatherDisplay:10.37 W/m2 SCT
07:24 4.3 °C -1.1 °C 1023.2 hPa North 1.9 km/h   68% 0 mm WeatherDisplay:10.37 W/m2 SCT
07:29 4.4 °C -1 °C 1022.9 hPa NNE 1.9 km/h   68% 0 mm WeatherDisplay:10.37 W/m2 SCT
07:34 4.4 °C -0.8 °C 1023.2 hPa ENE 1.9 km/h   69% 0 mm WeatherDisplay:10.37 W/m2 SCT
07:38 4.4 °C -0.8 °C 1023.2 hPa East 1.9 km/h   69% 0 mm WeatherDisplay:10.37 W/m2 SCT
07:48 4.4 °C -0.6 °C 1023.2 hPa East 1.9 km/h   70% 0 mm WeatherDisplay:10.37 W/m2 SCT
07:53 4.4 °C -0.8 °C 1023.2 hPa Calm     69% 0 mm WeatherDisplay:10.37 W/m2 SCT
07:58 4.4 °C -1 °C 1023.2 hPa ESE 1.9 km/h 1.9 km/h 68% 0 mm WeatherDisplay:10.37 W/m2 SCT
08:03 4.4 °C -0.9 °C 1023.2 hPa South 1.9 km/h 1.9 km/h 68% 0 mm WeatherDisplay:10.37 W/m2 OVC
08:08 4.5 °C -0.9 °C 1023.2 hPa South 1.9 km/h   68% 0 mm WeatherDisplay:10.37 W/m2 OVC
08:18 4.5 °C -0.7 °C 1023.6 hPa SSW 1.9 km/h   69% 0 mm WeatherDisplay:10.37 W/m2 OVC
08:23 4.5 °C -0.9 °C 1023.6 hPa SW 1.9 km/h   68% 0 mm WeatherDisplay:10.37 W/m2 OVC
08:33 4.6 °C -0.8 °C 1023.2 hPa South 1.9 km/h   68% 0 mm WeatherDisplay:10.37 W/m2 OVC
08:38 4.6 °C -1.1 °C 1023.6 hPa SE 1.9 km/h 1.9 km/h 67% 0 mm WeatherDisplay:10.37 W/m2 OVC
08:54 4.7 °C -0.7 °C 1023.9 hPa East 1.9 km/h   68% 0 mm WeatherDisplay:10.37 W/m2 OVC
08:59 4.8 °C -0.8 °C 1023.9 hPa East 1.9 km/h 1.9 km/h 67% 0 mm WeatherDisplay:10.37 W/m2 OVC
09:04 4.8 °C -1 °C 1023.9 hPa East 3.7 km/h 3.7 km/h 66% 0 mm WeatherDisplay:10.37 W/m2 OVC
09:14 5.1 °C -1 °C 1023.9 hPa ENE 5.6 km/h 5.6 km/h 65% 0 mm WeatherDisplay:10.37 W/m2 OVC
09:24 5.2 °C -1.1 °C 1023.9 hPa ESE 5.6 km/h 5.6 km/h 64% 0 mm WeatherDisplay:10.37 W/m2 OVC
09:29 5.3 °C -1 °C 1023.9 hPa ESE 5.6 km/h 5.6 km/h 64% 0 mm WeatherDisplay:10.37 W/m2 OVC
09:34 5.3 °C -0.9 °C 1023.9 hPa ESE 3.7 km/h 3.7 km/h 64% 0 mm WeatherDisplay:10.37 W/m2 OVC
09:39 5.4 °C -0.9 °C 1023.9 hPa ESE 5.6 km/h 5.6 km/h 64% 0 mm WeatherDisplay:10.37 W/m2 OVC
09:44 5.4 °C -1.3 °C 1024.3 hPa ESE 7.4 km/h 7.4 km/h 62% 0 mm WeatherDisplay:10.37 W/m2 OVC
09:50 5.6 °C -0.9 °C 1024.3 hPa Calm   1.6 km/h 63% 0 mm WeatherDisplay:10.37 W/m2 OVC
09:55 5.7 °C -1.1 °C 1024.3 hPa Calm   3.2 km/h 62% 0 mm WeatherDisplay:10.37 W/m2 OVC
10:00 5.8 °C -0.5 °C 1024.3 hPa East 3.7 km/h   64% 0 mm WeatherDisplay:10.37 W/m2 OVC
10:05 5.9 °C -0.8 °C 1024.3 hPa East 3.7 km/h 3.7 km/h 62% 0 mm WeatherDisplay:10.37 W/m2 OVC
10:25 6.3 °C -0.4 °C 1024.3 hPa North 1.9 km/h 1.9 km/h 62% 0 mm WeatherDisplay:10.37 W/m2 OVC
10:30 6.4 °C -0.6 °C 1024.3 hPa South 5.6 km/h 5.6 km/h 61% 0 mm WeatherDisplay:10.37 W/m2 OVC
10:40 6.5 °C -0.7 °C 1024.3 hPa ESE 3.7 km/h 3.7 km/h 60% 0 mm WeatherDisplay:10.37 W/m2 OVC
10:46 6.5 °C -0.5 °C 1024.3 hPa SE 3.7 km/h 3.7 km/h 61% 0 mm WeatherDisplay:10.37 W/m2 OVC
10:51 6.5 °C -0.7 °C 1024.3 hPa ESE 1.9 km/h   60% 0 mm WeatherDisplay:10.37 W/m2 OVC
10:56 6.6 °C -0.6 °C 1024.3 hPa ESE 1.9 km/h   60% 0 mm WeatherDisplay:10.37 W/m2 OVC
11:06 6.7 °C -0.1 °C 1024.3 hPa East 1.9 km/h 1.9 km/h 62% 0 mm WeatherDisplay:10.37 W/m2 OVC
11:11 6.8 °C -0.2 °C 1024.3 hPa West 1.9 km/h   61% 0 mm WeatherDisplay:10.37 W/m2 OVC
11:26 6.9 °C -0.8 °C 1024.3 hPa NE 1.9 km/h   58% 0 mm WeatherDisplay:10.37 W/m2 OVC
11:31 7.1 °C -0.2 °C 1023.9 hPa ENE 1.9 km/h   60% 0 mm WeatherDisplay:10.37 W/m2 OVC
11:41 7.2 °C -0.3 °C 1024.3 hPa NE 1.9 km/h   59% 0 mm WeatherDisplay:10.37 W/m2 OVC
11:52 7.5 °C 0 °C 1023.9 hPa SSW 3.7 km/h   59% 0 mm WeatherDisplay:10.37 W/m2 OVC
11:57 7.8 °C 0 °C 1023.6 hPa WNW 3.7 km/h   58% 0 mm WeatherDisplay:10.37 W/m2 OVC
12:02 7.9 °C -0.6 °C 1023.6 hPa Calm     55% 0 mm WeatherDisplay:10.37 W/m2 OVC
12:07 8 °C -0.5 °C 1023.6 hPa NNW 1.9 km/h   55% 0 mm WeatherDisplay:10.37 W/m2 OVC
12:17 8.1 °C -0.7 °C 1023.2 hPa SW 1.9 km/h   54% 0 mm WeatherDisplay:10.37 W/m2 OVC
12:22 8.2 °C -1.1 °C 1022.9 hPa SW 7.4 km/h 7.4 km/h 52% 0 mm WeatherDisplay:10.37 W/m2 OVC
12:27 8.1 °C -1.4 °C 1022.9 hPa SE 7.4 km/h 7.4 km/h 51% 0 mm WeatherDisplay:10.37 W/m2 OVC
12:42 8 °C -1.6 °C 1022.6 hPa East 5.6 km/h 5.6 km/h 51% 0 mm WeatherDisplay:10.37 W/m2 OVC
12:53 8.2 °C -1.1 °C 1022.2 hPa SE 1.9 km/h   52% 0 mm WeatherDisplay:10.37 W/m2 OVC
12:58 8.3 °C -1.2 °C 1022.2 hPa SSE 3.7 km/h 3.7 km/h 51% 0 mm WeatherDisplay:10.37 W/m2 OVC
13:03 8.3 °C -2.1 °C 1022.2 hPa South 3.7 km/h 3.7 km/h 48% 0 mm WeatherDisplay:10.37 W/m2 OVC
13:08 8.3 °C -0.9 °C 1022.6 hPa South 3.7 km/h 3.7 km/h 52% 0 mm WeatherDisplay:10.37 W/m2 OVC
13:13 8.4 °C -1.4 °C 1022.2 hPa SSE 5.6 km/h 5.6 km/h 50% 0 mm WeatherDisplay:10.37 W/m2 OVC
13:18 8.5 °C -1.1 °C 1022.2 hPa South 5.6 km/h   51% 0 mm WeatherDisplay:10.37 W/m2 OVC
13:23 8.6 °C -1.2 °C 1021.9 hPa SSE 5.6 km/h 5.6 km/h 50% 0 mm WeatherDisplay:10.37 W/m2 OVC
13:28 8.7 °C -1.2 °C 1021.6 hPa SSE 5.6 km/h 5.6 km/h 50% 0 mm WeatherDisplay:10.37 W/m2 OVC
13:33 8.8 °C -0.8 °C 1021.2 hPa ENE 3.7 km/h 3.7 km/h 51% 0 mm WeatherDisplay:10.37 W/m2 OVC
13:38 9 °C -1.4 °C 1021.2 hPa NNE 3.7 km/h 3.7 km/h 48% 0 mm WeatherDisplay:10.37 W/m2 OVC
13:43 9.1 °C -1.7 °C 1021.2 hPa NE 3.7 km/h   47% 0 mm WeatherDisplay:10.37 W/m2 OVC
13:48 9.1 °C -1.3 °C 1021.6 hPa NE 3.7 km/h   48% 0 mm WeatherDisplay:10.37 W/m2 OVC
13:54 9.2 °C -1.6 °C 1021.6 hPa ENE 3.7 km/h   47% 0 mm WeatherDisplay:10.37 W/m2 OVC
13:59 9.2 °C -1.6 °C 1021.6 hPa East 1.9 km/h 1.9 km/h 47% 0 mm WeatherDisplay:10.37 W/m2 OVC
14:09 9.1 °C -1.9 °C 1021.2 hPa East 7.4 km/h 7.4 km/h 46% 0 mm WeatherDisplay:10.37 W/m2 OVC
14:14 9.2 °C -1.6 °C 1021.2 hPa SE 7.4 km/h   47% 0 mm WeatherDisplay:10.37 W/m2 OVC
14:19 9.3 °C -1.2 °C 1021.2 hPa SE 3.7 km/h 3.7 km/h 48% 0 mm WeatherDisplay:10.37 W/m2 OVC
14:24 9.3 °C -1.8 °C 1021.2 hPa WSW 5.6 km/h 5.6 km/h 46% 0 mm WeatherDisplay:10.37 W/m2 OVC
14:29 9.3 °C -2.4 °C 1021.2 hPa SSE 7.4 km/h 7.4 km/h 44% 0 mm WeatherDisplay:10.37 W/m2 OVC
14:34 9.3 °C -2.7 °C 1021.2 hPa East 7.4 km/h 7.4 km/h 43% 0 mm WeatherDisplay:10.37 W/m2 OVC
14:39 9.2 °C -2.4 °C 1021.6 hPa SE 7.4 km/h 7.4 km/h 44% 0 mm WeatherDisplay:10.37 W/m2 OVC
14:44 9.2 °C -2.4 °C 1021.6 hPa SSE 7.4 km/h   44% 0 mm WeatherDisplay:10.37 W/m2 OVC
14:50 9.2 °C -1.5 °C 1021.2 hPa SSW 3.7 km/h 3.7 km/h 47% 0 mm WeatherDisplay:10.37 W/m2 OVC
14:55 9.3 °C -1.8 °C 1021.2 hPa Calm   1.6 km/h 46% 0 mm WeatherDisplay:10.37 W/m2 OVC
15:00 9.3 °C -3.3 °C 1021.6 hPa NE 5.6 km/h 5.6 km/h 41% 0 mm WeatherDisplay:10.37 W/m2 OVC
15:15 9.2 °C -3.4 °C 1021.2 hPa South 9.3 km/h   41% 0 mm WeatherDisplay:10.37 W/m2 OVC
15:20 9.1 °C -3.2 °C 1021.2 hPa SSE 9.3 km/h   42% 0 mm WeatherDisplay:10.37 W/m2 OVC
15:25 9.1 °C -2.8 °C 1021.2 hPa SE 3.7 km/h   43% 0 mm WeatherDisplay:10.37 W/m2 OVC
15:30 9.1 °C -2.3 °C 1021.2 hPa ESE 1.9 km/h   45% 0 mm WeatherDisplay:10.37 W/m2 OVC
15:35 9 °C -2.9 °C 1021.2 hPa SSE 1.9 km/h 1.9 km/h 43% 0 mm WeatherDisplay:10.37 W/m2 OVC
15:56 8.7 °C -2.6 °C 1021.2 hPa North 3.7 km/h   45% 0 mm WeatherDisplay:10.37 W/m2 OVC
16:01 8.6 °C -2.7 °C 1021.2 hPa East 7.4 km/h   45% 0 mm WeatherDisplay:10.37 W/m2 OVC
16:06 8.6 °C -3 °C 1021.6 hPa SSE 7.4 km/h 7.4 km/h 44% 0 mm WeatherDisplay:10.37 W/m2 OVC
16:16 8.4 °C -3.1 °C 1021.6 hPa SE 7.4 km/h 7.4 km/h 44% 0 mm WeatherDisplay:10.37 W/m2 OVC
16:21 8.4 °C -3.2 °C 1021.6 hPa ENE 7.4 km/h 7.4 km/h 44% 0 mm WeatherDisplay:10.37 W/m2 OVC
16:26 8.3 °C -2.9 °C 1021.6 hPa NE 1.9 km/h 1.9 km/h 45% 0 mm WeatherDisplay:10.37 W/m2 OVC
16:36 8.2 °C -3.3 °C 1021.6 hPa NE 5.6 km/h   44% 0 mm WeatherDisplay:10.37 W/m2 OVC
16:41 8.2 °C -3.7 °C 1021.6 hPa ENE 3.7 km/h 3.7 km/h 43% 0 mm WeatherDisplay:10.37 W/m2 OVC
16:47 8.1 °C -3.1 °C 1021.2 hPa ESE 3.7 km/h 3.7 km/h 45% 0 mm WeatherDisplay:10.37 W/m2 OVC
16:52 8 °C -2.9 °C 1021.6 hPa ENE 3.7 km/h   46% 0 mm WeatherDisplay:10.37 W/m2 OVC
16:57 8 °C -3.2 °C 1021.6 hPa NE 3.7 km/h 3.7 km/h 45% 0 mm WeatherDisplay:10.37 W/m2 OVC
17:02 7.9 °C -2.7 °C 1021.6 hPa NW 3.7 km/h   47% 0 mm WeatherDisplay:10.37 W/m2 OVC
17:07 7.8 °C -2.5 °C 1021.6 hPa NW 1.9 km/h   48% 0 mm WeatherDisplay:10.37 W/m2 OVC
17:17 7.7 °C -2.3 °C 1021.6 hPa WNW 3.7 km/h   49% 0 mm WeatherDisplay:10.37 W/m2 OVC
17:27 7.7 °C -2.1 °C 1021.6 hPa WNW 1.9 km/h 1.9 km/h 50% 0 mm WeatherDisplay:10.37 W/m2 OVC
17:32 7.6 °C -2.2 °C 1021.6 hPa WNW 1.9 km/h   50% 0 mm WeatherDisplay:10.37 W/m2 OVC
17:37 7.6 °C -2.7 °C 1021.2 hPa WNW 1.9 km/h 1.9 km/h 48% 0 mm WeatherDisplay:10.37 W/m2 OVC
17:47 7.6 °C -2.2 °C 1021.6 hPa ENE 1.9 km/h   50% 0 mm WeatherDisplay:10.37 W/m2 OVC
17:53 7.5 °C -1.5 °C 1021.2 hPa ENE 1.9 km/h   53% 0 mm WeatherDisplay:10.37 W/m2 OVC
17:58 7.4 °C -1.8 °C 1021.2 hPa ENE 1.9 km/h   52% 0 mm WeatherDisplay:10.37 W/m2 OVC
18:03 7.3 °C -1.9 °C 1021.2 hPa Calm     52% 0 mm WeatherDisplay:10.37 W/m2 OVC
18:08 7.3 °C -1.7 °C 1021.2 hPa ENE 1.9 km/h   53% 0 mm WeatherDisplay:10.37 W/m2 OVC
18:23 7.3 °C -1.4 °C 1021.2 hPa North 1.9 km/h   54% 0 mm WeatherDisplay:10.37 W/m2 OVC
18:30 7.3 °C -1.6 °C 1021.2 hPa NNE 1.9 km/h   53% 0 mm WeatherDisplay:10.37 W/m2 OVC
18:35 7.3 °C -1.7 °C 1021.2 hPa South 1.9 km/h   53% 0 mm WeatherDisplay:10.37 W/m2 OVC
18:40 7.3 °C -1.4 °C 1021.2 hPa SSW 1.9 km/h   54% 0 mm WeatherDisplay:10.37 W/m2 OVC
18:45 7.2 °C -1.3 °C 1021.2 hPa Calm     55% 0 mm WeatherDisplay:10.37 W/m2 OVC
18:50 7.1 °C -1.1 °C 1021.2 hPa Calm     56% 0 mm WeatherDisplay:10.37 W/m2 OVC
18:55 7.1 °C -1.4 °C 1021.2 hPa Calm     55% 0 mm WeatherDisplay:10.37 W/m2 OVC
19:00 7.1 °C -1.1 °C 1021.2 hPa Calm     56% 0 mm WeatherDisplay:10.37 W/m2 OVC
19:05 7.1 °C -1.4 °C 1021.6 hPa SSW 1.9 km/h   55% 0 mm WeatherDisplay:10.37 W/m2 OVC
19:21 7 °C -0.9 °C 1021.6 hPa Calm     57% 0 mm WeatherDisplay:10.37 W/m2 OVC
19:26 6.9 °C -0.8 °C 1021.6 hPa Calm     58% 0 mm WeatherDisplay:10.37 W/m2 OVC
19:31 6.8 °C -0.9 °C 1021.6 hPa Calm     58% 0 mm WeatherDisplay:10.37 W/m2 OVC
19:36 6.7 °C -0.8 °C 1021.6 hPa Calm     59% 0 mm WeatherDisplay:10.37 W/m2 OVC
19:41 6.5 °C -0.3 °C 1021.6 hPa Calm     62% 0 mm WeatherDisplay:10.37 W/m2 OVC
19:46 6.3 °C -0.4 °C 1021.6 hPa Calm     62% 0 mm WeatherDisplay:10.37 W/m2 OVC
19:51 6.2 °C -0.8 °C 1021.6 hPa Calm     61% 0 mm WeatherDisplay:10.37 W/m2 OVC
20:01 6 °C -0.3 °C 1021.2 hPa Calm     64% 0 mm WeatherDisplay:10.37 W/m2 SCT
20:06 5.9 °C -0.2 °C 1021.2 hPa Calm     65% 0 mm WeatherDisplay:10.37 W/m2 SCT
20:27 5.7 °C -0.3 °C 1020.9 hPa Calm     65% 0 mm WeatherDisplay:10.37 W/m2 SCT
20:32 5.8 °C -0.1 °C 1021.2 hPa Calm     66% 0 mm WeatherDisplay:10.37 W/m2 SCT
20:42 5.8 °C -0.1 °C 1021.2 hPa Calm     66% 0 mm WeatherDisplay:10.37 W/m2 SCT
20:47 5.8 °C -0.1 °C 1021.2 hPa Calm     66% 0 mm WeatherDisplay:10.37 W/m2 SCT
20:52 5.9 °C 0.4 °C 1021.2 hPa Calm     68% 0 mm WeatherDisplay:10.37 W/m2 SCT
20:57 5.9 °C 0.6 °C 1021.2 hPa Calm     69% 0 mm WeatherDisplay:10.37 W/m2 SCT
21:03 5.9 °C 0.6 °C 1021.2 hPa Calm     69% 0 mm WeatherDisplay:10.37 W/m2 OVC
21:08 5.9 °C 0 °C 1020.9 hPa Calm     66% 0 mm WeatherDisplay:10.37 W/m2 OVC
21:38 5.9 °C 0.3 °C 1020.9 hPa Calm     67% 0 mm WeatherDisplay:10.37 W/m2 OVC
21:53 6.1 °C -0.1 °C 1020.9 hPa Calm   0.2 km/h 65% 0 mm WeatherDisplay:10.37 W/m2 OVC
21:58 6.1 °C -0.1 °C 1020.9 hPa West 1.9 km/h   65% 0 mm WeatherDisplay:10.37 W/m2 OVC
22:08 6.1 °C -0.2 °C 1020.9 hPa Calm     64% 0 mm WeatherDisplay:10.37 W/m2 OVC
22:14 6.2 °C -0.6 °C 1020.9 hPa WSW 1.9 km/h   62% 0 mm WeatherDisplay:10.37 W/m2 OVC
22:23 6.2 °C -0.3 °C 1021.2 hPa SW 1.9 km/h   63% 0 mm WeatherDisplay:10.37 W/m2 OVC
22:28 6.1 °C -0.4 °C 1021.2 hPa Calm     63% 0 mm WeatherDisplay:10.37 W/m2 OVC
22:32 6.1 °C -0.2 °C 1021.2 hPa Calm     64% 0 mm WeatherDisplay:10.37 W/m2 OVC
22:37 6.1 °C -0.2 °C 1021.2 hPa Calm     64% 0 mm WeatherDisplay:10.37 W/m2 OVC
22:42 6.1 °C -0.4 °C 1020.9 hPa Calm     63% 0 mm WeatherDisplay:10.37 W/m2 OVC
22:46 6 °C -0.1 °C 1020.9 hPa Calm     65% 0 mm WeatherDisplay:10.37 W/m2 OVC
22:56 5.9 °C -0.3 °C 1020.5 hPa Calm     64% 0 mm WeatherDisplay:10.37 W/m2 OVC
23:01 5.9 °C -0.4 °C 1020.5 hPa Calm     64% 0 mm WeatherDisplay:10.37 W/m2 OVC
23:06 5.8 °C -0.2 °C 1020.5 hPa Calm     65% 0 mm WeatherDisplay:10.37 W/m2 OVC
23:11 5.8 °C -0.2 °C 1020.5 hPa Calm     65% 0 mm WeatherDisplay:10.37 W/m2 OVC
23:16 5.8 °C -0.7 °C 1020.5 hPa WSW 1.9 km/h   63% 0 mm WeatherDisplay:10.37 W/m2 OVC
23:21 5.9 °C -0.6 °C 1020.5 hPa West 1.9 km/h   63% 0 mm WeatherDisplay:10.37 W/m2 OVC
23:26 5.9 °C -0.3 °C 1020.5 hPa NW 1.9 km/h 1.9 km/h 64% 0 mm WeatherDisplay:10.37 W/m2 OVC
23:31 5.9 °C -0.3 °C 1020.5 hPa NW 1.9 km/h   64% 0 mm WeatherDisplay:10.37 W/m2 OVC
23:36 5.9 °C -0.6 °C 1020.5 hPa NW 1.9 km/h   63% 0 mm WeatherDisplay:10.37 W/m2 OVC
23:42 5.9 °C -0.4 °C 1020.5 hPa ENE 1.9 km/h   64% 0 mm WeatherDisplay:10.37 W/m2 OVC
23:47 5.9 °C -0.6 °C 1020.5 hPa ESE 1.9 km/h   63% 0 mm WeatherDisplay:10.37 W/m2 OVC
23:57 5.9 °C -0.6 °C 1020.5 hPa WSW 1.9 km/h   63% 0 mm WeatherDisplay:10.37 W/m2 OVC
Piedmont Bend
Compliments of Weather Underground - 4 mb